Flight Briefing for CPX782

Departure Arrival
Incheon International Airport (RKSI)
Click to view FAA NOTAMS
Noi Bai International Airport (VVNB)
Click to view FAA NOTAMS
Departure Time Arrival Time
N/A N/A
Aircraft Distance
B767-300BDSF 1449nm
Departure METAR Arrival METAR
RKSI 271100Z 31013KT 9999 FEW030 SCT180 17/10 Q1004 NOSIG VVNB 271100Z 05005KT 010V110 CAVOK 28/24 Q1003 NOSIG
Suggested Route
BOPTA1K BOPTA Z51 BEDES Y711 PONIK A593 PUD A599 JTN A599 PLT A599 GYA R474 LON R474 NOB


View recent IFR Routes data
Notes



Charts and Procedures

Charts for RKSI
No chart available
Charts for VVNB
No chart available

Windy.com Weather Map